sensor_id;sensor_type;location;lat;lon;timestamp;temperature;humidity
43679;DHT22;29279;50.858;4.392;2023-07-09T00:01:17;27.10;97.20
43679;DHT22;29279;50.858;4.392;2023-07-09T00:03:46;27.00;97.10
43679;DHT22;29279;50.858;4.392;2023-07-09T00:06:17;27.00;97.30
43679;DHT22;29279;50.858;4.392;2023-07-09T00:08:45;27.00;97.60
43679;DHT22;29279;50.858;4.392;2023-07-09T00:11:16;26.90;98.00
43679;DHT22;29279;50.858;4.392;2023-07-09T00:13:42;26.80;98.20
43679;DHT22;29279;50.858;4.392;2023-07-09T00:16:23;26.70;98.40
43679;DHT22;29279;50.858;4.392;2023-07-09T00:18:48;26.70;98.00
43679;DHT22;29279;50.858;4.392;2023-07-09T00:21:18;26.60;98.10
43679;DHT22;29279;50.858;4.392;2023-07-09T00:23:45;26.70;97.80
43679;DHT22;29279;50.858;4.392;2023-07-09T00:26:15;26.70;98.00
43679;DHT22;29279;50.858;4.392;2023-07-09T00:28:44;26.60;98.20
43679;DHT22;29279;50.858;4.392;2023-07-09T00:31:15;26.50;98.60
43679;DHT22;29279;50.858;4.392;2023-07-09T00:33:42;26.50;99.00
43679;DHT22;29279;50.858;4.392;2023-07-09T00:36:21;26.60;99.30
43679;DHT22;29279;50.858;4.392;2023-07-09T00:38:49;26.50;98.90
43679;DHT22;29279;50.858;4.392;2023-07-09T00:41:21;26.60;99.30
43679;DHT22;29279;50.858;4.392;2023-07-09T00:43:49;26.80;98.80
43679;DHT22;29279;50.858;4.392;2023-07-09T00:49:00;26.80;98.90
43679;DHT22;29279;50.858;4.392;2023-07-09T00:51:28;26.80;99.10
43679;DHT22;29279;50.858;4.392;2023-07-09T00:53:58;26.70;99.30
43679;DHT22;29279;50.858;4.392;2023-07-09T00:56:33;26.50;99.60
43679;DHT22;29279;50.858;4.392;2023-07-09T00:59:02;26.30;99.90
43679;DHT22;29279;50.858;4.392;2023-07-09T01:01:31;26.40;99.90
43679;DHT22;29279;50.858;4.392;2023-07-09T01:03:58;26.50;99.90
43679;DHT22;29279;50.858;4.392;2023-07-09T01:06:34;26.60;99.70
43679;DHT22;29279;50.858;4.392;2023-07-09T01:09:02;26.50;99.80
43679;DHT22;29279;50.858;4.392;2023-07-09T01:11:28;26.30;99.90
43679;DHT22;29279;50.858;4.392;2023-07-09T01:13:57;26.20;99.90
43679;DHT22;29279;50.858;4.392;2023-07-09T01:16:28;26.10;99.90
43679;DHT22;29279;50.858;4.392;2023-07-09T01:18:54;26.00;99.90
43679;DHT22;29279;50.858;4.392;2023-07-09T01:21:20;26.00;99.90
43679;DHT22;29279;50.858;4.392;2023-07-09T01:23:48;26.00;99.90
43679;DHT22;29279;50.858;4.392;2023-07-09T01:26:18;26.00;99.90
43679;DHT22;29279;50.858;4.392;2023-07-09T01:28:45;25.90;99.90
43679;DHT22;29279;50.858;4.392;2023-07-09T01:31:12;25.80;99.90
43679;DHT22;29279;50.858;4.392;2023-07-09T01:33:43;25.70;99.90
43679;DHT22;29279;50.858;4.392;2023-07-09T01:36:12;25.60;99.90
43679;DHT22;29279;50.858;4.392;2023-07-09T01:38:40;25.60;99.90
43679;DHT22;29279;50.858;4.392;2023-07-09T01:41:05;25.60;99.90
43679;DHT22;29279;50.858;4.392;2023-07-09T01:43:32;25.50;99.90
43679;DHT22;29279;50.858;4.392;2023-07-09T01:45:58;25.50;99.90
43679;DHT22;29279;50.858;4.392;2023-07-09T01:48:25;25.50;99.90
43679;DHT22;29279;50.858;4.392;2023-07-09T01:50:52;25.50;99.90
43679;DHT22;29279;50.858;4.392;2023-07-09T01:53:22;25.40;99.90
43679;DHT22;29279;50.858;4.392;2023-07-09T01:55:49;25.50;99.90
43679;DHT22;29279;50.858;4.392;2023-07-09T01:58:16;25.40;99.90
43679;DHT22;29279;50.858;4.392;2023-07-09T02:00:42;25.30;99.90
43679;DHT22;29279;50.858;4.392;2023-07-09T02:03:08;25.30;99.90
43679;DHT22;29279;50.858;4.392;2023-07-09T02:05:35;25.20;99.90
43679;DHT22;29279;50.858;4.392;2023-07-09T02:08:01;25.20;99.90
43679;DHT22;29279;50.858;4.392;2023-07-09T02:10:26;25.10;99.90
43679;DHT22;29279;50.858;4.392;2023-07-09T02:12:52;25.10;99.90
43679;DHT22;29279;50.858;4.392;2023-07-09T02:15:18;25.10;99.90
43679;DHT22;29279;50.858;4.392;2023-07-09T02:17:43;25.10;99.90
43679;DHT22;29279;50.858;4.392;2023-07-09T02:20:10;25.10;99.90
43679;DHT22;29279;50.858;4.392;2023-07-09T02:22:38;25.20;99.90
43679;DHT22;29279;50.858;4.392;2023-07-09T02:25:04;25.20;99.90
43679;DHT22;29279;50.858;4.392;2023-07-09T02:27:31;25.10;99.90
43679;DHT22;29279;50.858;4.392;2023-07-09T02:29:57;25.10;99.90
43679;DHT22;29279;50.858;4.392;2023-07-09T02:32:25;25.00;99.90
43679;DHT22;29279;50.858;4.392;2023-07-09T02:34:52;25.10;99.90
43679;DHT22;29279;50.858;4.392;2023-07-09T02:37:20;25.10;99.90
43679;DHT22;29279;50.858;4.392;2023-07-09T02:39:46;25.00;99.90
43679;DHT22;29279;50.858;4.392;2023-07-09T02:42:13;25.00;99.90
43679;DHT22;29279;50.858;4.392;2023-07-09T02:44:40;25.00;99.90
43679;DHT22;29279;50.858;4.392;2023-07-09T02:47:06;25.00;99.90
43679;DHT22;29279;50.858;4.392;2023-07-09T02:49:32;25.00;99.90
43679;DHT22;29279;50.858;4.392;2023-07-09T02:51:58;24.90;99.90
43679;DHT22;29279;50.858;4.392;2023-07-09T02:54:23;24.90;99.90
43679;DHT22;29279;50.858;4.392;2023-07-09T02:56:49;24.80;99.90
43679;DHT22;29279;50.858;4.392;2023-07-09T02:59:15;24.90;99.90
43679;DHT22;29279;50.858;4.392;2023-07-09T03:01:41;24.90;99.90
43679;DHT22;29279;50.858;4.392;2023-07-09T03:04:06;24.90;99.90
43679;DHT22;29279;50.858;4.392;2023-07-09T03:06:36;24.90;99.90
43679;DHT22;29279;50.858;4.392;2023-07-09T03:09:03;24.80;99.90
43679;DHT22;29279;50.858;4.392;2023-07-09T03:11:30;24.90;99.90
43679;DHT22;29279;50.858;4.392;2023-07-09T03:13:56;25.00;99.90
43679;DHT22;29279;50.858;4.392;2023-07-09T03:16:22;25.00;99.90
43679;DHT22;29279;50.858;4.392;2023-07-09T03:18:48;25.00;99.90
43679;DHT22;29279;50.858;4.392;2023-07-09T03:21:14;24.90;99.90
43679;DHT22;29279;50.858;4.392;2023-07-09T03:23:39;24.70;99.90
43679;DHT22;29279;50.858;4.392;2023-07-09T03:26:05;24.70;99.90
43679;DHT22;29279;50.858;4.392;2023-07-09T03:28:31;24.60;99.90
43679;DHT22;29279;50.858;4.392;2023-07-09T03:30:57;24.70;99.90
43679;DHT22;29279;50.858;4.392;2023-07-09T03:33:23;24.70;99.90
43679;DHT22;29279;50.858;4.392;2023-07-09T03:35:50;24.60;99.90
43679;DHT22;29279;50.858;4.392;2023-07-09T03:38:16;24.50;99.90
43679;DHT22;29279;50.858;4.392;2023-07-09T03:40:42;24.40;99.90
43679;DHT22;29279;50.858;4.392;2023-07-09T03:43:09;24.30;99.90
43679;DHT22;29279;50.858;4.392;2023-07-09T03:45:37;24.40;99.90
43679;DHT22;29279;50.858;4.392;2023-07-09T03:48:04;24.50;99.90
43679;DHT22;29279;50.858;4.392;2023-07-09T03:50:31;24.60;99.90
43679;DHT22;29279;50.858;4.392;2023-07-09T03:52:56;24.60;99.90
43679;DHT22;29279;50.858;4.392;2023-07-09T03:55:22;24.60;99.90
43679;DHT22;29279;50.858;4.392;2023-07-09T03:57:55;24.70;99.90
43679;DHT22;29279;50.858;4.392;2023-07-09T04:00:21;24.60;99.90
43679;DHT22;29279;50.858;4.392;2023-07-09T04:02:47;24.70;99.90
43679;DHT22;29279;50.858;4.392;2023-07-09T04:05:13;24.80;99.90
43679;DHT22;29279;50.858;4.392;2023-07-09T04:07:39;24.90;99.90
43679;DHT22;29279;50.858;4.392;2023-07-09T04:10:05;24.80;99.90
43679;DHT22;29279;50.858;4.392;2023-07-09T04:12:31;24.70;99.90
43679;DHT22;29279;50.858;4.392;2023-07-09T04:14:57;24.70;99.90
43679;DHT22;29279;50.858;4.392;2023-07-09T04:17:23;24.70;99.90
43679;DHT22;29279;50.858;4.392;2023-07-09T04:19:49;24.50;99.90
43679;DHT22;29279;50.858;4.392;2023-07-09T04:22:15;24.50;99.90
43679;DHT22;29279;50.858;4.392;2023-07-09T04:24:41;24.40;99.90
43679;DHT22;29279;50.858;4.392;2023-07-09T04:27:07;24.40;99.90
43679;DHT22;29279;50.858;4.392;2023-07-09T04:29:33;24.30;99.90
43679;DHT22;29279;50.858;4.392;2023-07-09T04:32:01;24.40;99.90
43679;DHT22;29279;50.858;4.392;2023-07-09T04:34:27;24.40;99.90
43679;DHT22;29279;50.858;4.392;2023-07-09T04:36:52;24.40;99.90
43679;DHT22;29279;50.858;4.392;2023-07-09T04:39:18;24.50;99.90
43679;DHT22;29279;50.858;4.392;2023-07-09T04:41:44;24.50;99.90
43679;DHT22;29279;50.858;4.392;2023-07-09T04:44:09;24.60;99.90
43679;DHT22;29279;50.858;4.392;2023-07-09T04:46:35;24.60;99.90
43679;DHT22;29279;50.858;4.392;2023-07-09T04:49:01;24.60;99.90
43679;DHT22;29279;50.858;4.392;2023-07-09T04:51:27;24.60;99.90
43679;DHT22;29279;50.858;4.392;2023-07-09T04:53:53;24.60;99.90
43679;DHT22;29279;50.858;4.392;2023-07-09T04:56:18;24.60;99.90
43679;DHT22;29279;50.858;4.392;2023-07-09T04:58:44;24.70;99.90
43679;DHT22;29279;50.858;4.392;2023-07-09T05:01:10;24.70;99.90
43679;DHT22;29279;50.858;4.392;2023-07-09T05:03:36;24.70;99.90
43679;DHT22;29279;50.858;4.392;2023-07-09T05:06:03;24.70;99.90
43679;DHT22;29279;50.858;4.392;2023-07-09T05:08:28;24.70;99.90
43679;DHT22;29279;50.858;4.392;2023-07-09T05:10:56;24.70;99.90
43679;DHT22;29279;50.858;4.392;2023-07-09T05:13:22;24.70;99.90
43679;DHT22;29279;50.858;4.392;2023-07-09T05:15:49;24.80;99.90
43679;DHT22;29279;50.858;4.392;2023-07-09T05:18:16;24.90;99.90
43679;DHT22;29279;50.858;4.392;2023-07-09T05:20:42;24.90;99.90
43679;DHT22;29279;50.858;4.392;2023-07-09T05:23:11;25.00;99.90
43679;DHT22;29279;50.858;4.392;2023-07-09T05:25:36;25.10;99.90
43679;DHT22;29279;50.858;4.392;2023-07-09T05:28:03;25.10;99.90
43679;DHT22;29279;50.858;4.392;2023-07-09T05:30:29;25.20;99.90
43679;DHT22;29279;50.858;4.392;2023-07-09T05:32:54;25.20;99.90
43679;DHT22;29279;50.858;4.392;2023-07-09T05:35:23;25.20;99.90
43679;DHT22;29279;50.858;4.392;2023-07-09T05:37:51;25.30;99.90
43679;DHT22;29279;50.858;4.392;2023-07-09T05:40:16;25.40;99.90
43679;DHT22;29279;50.858;4.392;2023-07-09T05:42:42;25.50;99.90
43679;DHT22;29279;50.858;4.392;2023-07-09T05:45:08;25.50;99.90
43679;DHT22;29279;50.858;4.392;2023-07-09T05:47:34;25.60;99.90
43679;DHT22;29279;50.858;4.392;2023-07-09T05:49:59;25.70;99.90
43679;DHT22;29279;50.858;4.392;2023-07-09T05:52:25;25.70;99.90
43679;DHT22;29279;50.858;4.392;2023-07-09T05:54:51;25.60;99.90
43679;DHT22;29279;50.858;4.392;2023-07-09T05:57:18;25.60;99.90
43679;DHT22;29279;50.858;4.392;2023-07-09T05:59:44;25.50;99.90
43679;DHT22;29279;50.858;4.392;2023-07-09T06:02:14;25.40;99.90
43679;DHT22;29279;50.858;4.392;2023-07-09T06:04:40;25.30;99.90
43679;DHT22;29279;50.858;4.392;2023-07-09T06:07:10;25.40;99.90
43679;DHT22;29279;50.858;4.392;2023-07-09T06:09:36;25.50;99.90
43679;DHT22;29279;50.858;4.392;2023-07-09T06:12:03;25.50;99.90
43679;DHT22;29279;50.858;4.392;2023-07-09T06:14:29;25.50;99.90
43679;DHT22;29279;50.858;4.392;2023-07-09T06:16:55;25.60;99.90
43679;DHT22;29279;50.858;4.392;2023-07-09T06:19:21;25.60;99.90
43679;DHT22;29279;50.858;4.392;2023-07-09T06:21:47;25.60;99.90
43679;DHT22;29279;50.858;4.392;2023-07-09T06:24:13;25.60;99.90
43679;DHT22;29279;50.858;4.392;2023-07-09T06:26:40;25.40;99.90
43679;DHT22;29279;50.858;4.392;2023-07-09T06:29:06;25.30;99.90
43679;DHT22;29279;50.858;4.392;2023-07-09T06:31:31;25.20;99.90
43679;DHT22;29279;50.858;4.392;2023-07-09T06:33:57;25.30;99.90
43679;DHT22;29279;50.858;4.392;2023-07-09T06:36:23;25.30;99.90
43679;DHT22;29279;50.858;4.392;2023-07-09T06:38:49;25.10;99.90
43679;DHT22;29279;50.858;4.392;2023-07-09T06:41:15;25.00;99.90
43679;DHT22;29279;50.858;4.392;2023-07-09T06:43:41;24.90;99.90
43679;DHT22;29279;50.858;4.392;2023-07-09T06:46:10;24.90;99.90
43679;DHT22;29279;50.858;4.392;2023-07-09T06:48:36;24.80;99.90
43679;DHT22;29279;50.858;4.392;2023-07-09T06:51:02;24.70;99.90
43679;DHT22;29279;50.858;4.392;2023-07-09T06:53:29;24.80;99.90
43679;DHT22;29279;50.858;4.392;2023-07-09T06:55:55;24.80;99.90
43679;DHT22;29279;50.858;4.392;2023-07-09T06:58:25;24.90;99.90
43679;DHT22;29279;50.858;4.392;2023-07-09T07:00:54;24.90;99.90
43679;DHT22;29279;50.858;4.392;2023-07-09T07:03:20;25.10;99.90
43679;DHT22;29279;50.858;4.392;2023-07-09T07:05:48;25.10;99.90
43679;DHT22;29279;50.858;4.392;2023-07-09T07:08:20;25.10;99.90
43679;DHT22;29279;50.858;4.392;2023-07-09T07:10:48;25.20;99.90
43679;DHT22;29279;50.858;4.392;2023-07-09T07:13:14;25.40;99.90
43679;DHT22;29279;50.858;4.392;2023-07-09T07:15:39;25.50;99.90
43679;DHT22;29279;50.858;4.392;2023-07-09T07:18:06;25.70;99.90
43679;DHT22;29279;50.858;4.392;2023-07-09T07:20:33;25.80;99.90
43679;DHT22;29279;50.858;4.392;2023-07-09T07:22:58;25.90;99.90
43679;DHT22;29279;50.858;4.392;2023-07-09T07:25:24;26.10;99.90
43679;DHT22;29279;50.858;4.392;2023-07-09T07:27:50;26.20;99.90
43679;DHT22;29279;50.858;4.392;2023-07-09T07:30:17;26.30;99.90
43679;DHT22;29279;50.858;4.392;2023-07-09T07:32:47;26.40;99.90
43679;DHT22;29279;50.858;4.392;2023-07-09T07:35:13;26.60;99.90
43679;DHT22;29279;50.858;4.392;2023-07-09T07:37:42;26.80;99.90
43679;DHT22;29279;50.858;4.392;2023-07-09T07:40:08;26.90;99.90
43679;DHT22;29279;50.858;4.392;2023-07-09T07:42:34;27.00;99.90
43679;DHT22;29279;50.858;4.392;2023-07-09T07:45:00;26.90;99.90
43679;DHT22;29279;50.858;4.392;2023-07-09T07:47:26;26.90;99.90
43679;DHT22;29279;50.858;4.392;2023-07-09T07:49:53;26.90;99.90
43679;DHT22;29279;50.858;4.392;2023-07-09T07:52:19;26.80;99.90
43679;DHT22;29279;50.858;4.392;2023-07-09T07:54:45;27.00;99.90
43679;DHT22;29279;50.858;4.392;2023-07-09T07:57:11;27.10;99.90
43679;DHT22;29279;50.858;4.392;2023-07-09T07:59:38;27.30;99.90
43679;DHT22;29279;50.858;4.392;2023-07-09T08:02:05;27.40;99.90
43679;DHT22;29279;50.858;4.392;2023-07-09T08:04:31;27.40;99.90
43679;DHT22;29279;50.858;4.392;2023-07-09T08:06:58;27.50;99.90
43679;DHT22;29279;50.858;4.392;2023-07-09T08:09:24;27.60;99.90
43679;DHT22;29279;50.858;4.392;2023-07-09T08:11:50;27.60;99.70
43679;DHT22;29279;50.858;4.392;2023-07-09T08:14:16;27.50;99.80
43679;DHT22;29279;50.858;4.392;2023-07-09T08:16:42;27.60;99.70
43679;DHT22;29279;50.858;4.392;2023-07-09T08:19:07;27.70;99.50
43679;DHT22;29279;50.858;4.392;2023-07-09T08:21:33;27.80;99.20
43679;DHT22;29279;50.858;4.392;2023-07-09T08:23:59;27.80;98.70
43679;DHT22;29279;50.858;4.392;2023-07-09T08:26:25;27.90;97.90
43679;DHT22;29279;50.858;4.392;2023-07-09T08:28:51;28.10;97.70
43679;DHT22;29279;50.858;4.392;2023-07-09T08:31:17;28.20;97.50
43679;DHT22;29279;50.858;4.392;2023-07-09T08:33:42;28.40;96.90
43679;DHT22;29279;50.858;4.392;2023-07-09T08:36:08;28.50;96.30
43679;DHT22;29279;50.858;4.392;2023-07-09T08:38:34;28.60;96.20
43679;DHT22;29279;50.858;4.392;2023-07-09T08:41:07;28.70;96.10
43679;DHT22;29279;50.858;4.392;2023-07-09T08:49:21;29.10;95.90
43679;DHT22;29279;50.858;4.392;2023-07-09T08:51:49;29.30;95.80
43679;DHT22;29279;50.858;4.392;2023-07-09T08:54:36;29.50;95.80
43679;DHT22;29279;50.858;4.392;2023-07-09T08:57:38;29.60;95.30
43679;DHT22;29279;50.858;4.392;2023-07-09T09:00:14;29.90;95.20
43679;DHT22;29279;50.858;4.392;2023-07-09T09:02:56;30.00;94.70
43679;DHT22;29279;50.858;4.392;2023-07-09T09:05:24;30.00;94.70
43679;DHT22;29279;50.858;4.392;2023-07-09T09:13:13;30.20;94.50
43679;DHT22;29279;50.858;4.392;2023-07-09T09:15:40;30.40;94.30
43679;DHT22;29279;50.858;4.392;2023-07-09T09:18:29;30.50;94.20
43679;DHT22;29279;50.858;4.392;2023-07-09T09:21:05;30.70;94.20
43679;DHT22;29279;50.858;4.392;2023-07-09T09:23:52;30.90;93.80
43679;DHT22;29279;50.858;4.392;2023-07-09T09:26:33;31.10;93.60
43679;DHT22;29279;50.858;4.392;2023-07-09T09:29:00;31.40;93.20
43679;DHT22;29279;50.858;4.392;2023-07-09T09:31:27;31.50;93.20
43679;DHT22;29279;50.858;4.392;2023-07-09T09:33:54;31.80;93.10
43679;DHT22;29279;50.858;4.392;2023-07-09T09:36:22;32.00;92.70
43679;DHT22;29279;50.858;4.392;2023-07-09T09:38:49;32.10;92.10
43679;DHT22;29279;50.858;4.392;2023-07-09T09:41:20;32.20;92.60
43679;DHT22;29279;50.858;4.392;2023-07-09T09:43:47;32.40;92.50
43679;DHT22;29279;50.858;4.392;2023-07-09T09:46:20;32.40;92.00
43679;DHT22;29279;50.858;4.392;2023-07-09T09:48:49;32.60;92.00
43679;DHT22;29279;50.858;4.392;2023-07-09T09:51:16;32.80;92.10
43679;DHT22;29279;50.858;4.392;2023-07-09T09:53:50;32.90;91.80
43679;DHT22;29279;50.858;4.392;2023-07-09T09:56:34;33.10;92.00
43679;DHT22;29279;50.858;4.392;2023-07-09T09:59:02;33.40;91.30
43679;DHT22;29279;50.858;4.392;2023-07-09T10:01:34;33.30;91.30
43679;DHT22;29279;50.858;4.392;2023-07-09T10:04:02;33.20;91.20
43679;DHT22;29279;50.858;4.392;2023-07-09T10:06:35;33.30;91.00
43679;DHT22;29279;50.858;4.392;2023-07-09T10:16:48;34.20;90.70
43679;DHT22;29279;50.858;4.392;2023-07-09T10:19:24;34.30;90.00
43679;DHT22;29279;50.858;4.392;2023-07-09T10:21:57;34.10;90.00
43679;DHT22;29279;50.858;4.392;2023-07-09T10:24:58;34.00;90.30
43679;DHT22;29279;50.858;4.392;2023-07-09T10:27:29;34.00;90.50
43679;DHT22;29279;50.858;4.392;2023-07-09T10:30:29;34.00;90.30
43679;DHT22;29279;50.858;4.392;2023-07-09T10:33:10;33.70;90.30
43679;DHT22;29279;50.858;4.392;2023-07-09T10:38:47;33.50;90.80
43679;DHT22;29279;50.858;4.392;2023-07-09T10:41:18;33.40;91.00
43679;DHT22;29279;50.858;4.392;2023-07-09T10:43:49;33.20;91.10
43679;DHT22;29279;50.858;4.392;2023-07-09T10:46:26;32.60;91.00
43679;DHT22;29279;50.858;4.392;2023-07-09T10:48:54;32.20;91.40
43679;DHT22;29279;50.858;4.392;2023-07-09T10:52:02;32.00;91.90
43679;DHT22;29279;50.858;4.392;2023-07-09T10:54:34;31.70;92.30
43679;DHT22;29279;50.858;4.392;2023-07-09T10:59:59;31.20;92.60
43679;DHT22;29279;50.858;4.392;2023-07-09T11:02:36;30.90;92.80
43679;DHT22;29279;50.858;4.392;2023-07-09T11:05:05;31.00;93.00
43679;DHT22;29279;50.858;4.392;2023-07-09T11:10:39;30.80;93.00
43679;DHT22;29279;50.858;4.392;2023-07-09T11:15:41;30.60;93.20
43679;DHT22;29279;50.858;4.392;2023-07-09T11:18:12;30.50;93.30
43679;DHT22;29279;50.858;4.392;2023-07-09T11:20:44;30.30;93.10
43679;DHT22;29279;50.858;4.392;2023-07-09T11:23:22;30.20;93.30
43679;DHT22;29279;50.858;4.392;2023-07-09T11:26:01;30.20;93.20
43679;DHT22;29279;50.858;4.392;2023-07-09T11:28:38;29.90;93.10
43679;DHT22;29279;50.858;4.392;2023-07-09T11:31:14;29.90;93.50
43679;DHT22;29279;50.858;4.392;2023-07-09T11:33:48;29.80;93.40
43679;DHT22;29279;50.858;4.392;2023-07-09T11:36:24;29.70;93.70
43679;DHT22;29279;50.858;4.392;2023-07-09T11:38:50;29.50;93.70
43679;DHT22;29279;50.858;4.392;2023-07-09T11:43:50;29.40;93.70
43679;DHT22;29279;50.858;4.392;2023-07-09T11:46:24;29.30;93.70
43679;DHT22;29279;50.858;4.392;2023-07-09T11:48:54;29.20;93.90
43679;DHT22;29279;50.858;4.392;2023-07-09T11:51:31;29.10;94.00
43679;DHT22;29279;50.858;4.392;2023-07-09T11:54:00;29.00;94.10
43679;DHT22;29279;50.858;4.392;2023-07-09T11:56:26;28.80;94.20
43679;DHT22;29279;50.858;4.392;2023-07-09T11:58:55;28.80;94.50
43679;DHT22;29279;50.858;4.392;2023-07-09T12:01:23;28.80;94.50
43679;DHT22;29279;50.858;4.392;2023-07-09T12:03:51;28.70;94.50
43679;DHT22;29279;50.858;4.392;2023-07-09T12:06:20;28.60;94.70
43679;DHT22;29279;50.858;4.392;2023-07-09T12:08:48;28.50;94.90
43679;DHT22;29279;50.858;4.392;2023-07-09T12:11:43;28.40;95.10
43679;DHT22;29279;50.858;4.392;2023-07-09T12:14:11;28.30;95.10
43679;DHT22;29279;50.858;4.392;2023-07-09T12:16:43;28.20;95.30
43679;DHT22;29279;50.858;4.392;2023-07-09T12:19:12;28.20;95.40
43679;DHT22;29279;50.858;4.392;2023-07-09T12:21:39;28.10;95.90
43679;DHT22;29279;50.858;4.392;2023-07-09T12:24:21;27.90;96.50
43679;DHT22;29279;50.858;4.392;2023-07-09T12:26:55;27.50;96.70
43679;DHT22;29279;50.858;4.392;2023-07-09T12:29:31;27.20;97.60
43679;DHT22;29279;50.858;4.392;2023-07-09T12:31:58;26.50;99.80
43679;DHT22;29279;50.858;4.392;2023-07-09T12:34:24;25.40;99.90
43679;DHT22;29279;50.858;4.392;2023-07-09T12:36:52;24.50;99.90
43679;DHT22;29279;50.858;4.392;2023-07-09T12:39:24;23.90;99.90
43679;DHT22;29279;50.858;4.392;2023-07-09T12:41:54;23.50;99.90
43679;DHT22;29279;50.858;4.392;2023-07-09T12:44:22;23.40;99.90
43679;DHT22;29279;50.858;4.392;2023-07-09T12:46:50;23.30;99.90
43679;DHT22;29279;50.858;4.392;2023-07-09T12:49:24;23.40;99.90
43679;DHT22;29279;50.858;4.392;2023-07-09T12:51:50;23.50;99.90
43679;DHT22;29279;50.858;4.392;2023-07-09T12:54:19;23.70;99.90
43679;DHT22;29279;50.858;4.392;2023-07-09T12:56:49;23.90;99.90
43679;DHT22;29279;50.858;4.392;2023-07-09T12:59:21;24.20;99.90
43679;DHT22;29279;50.858;4.392;2023-07-09T13:04:27;24.60;99.90
43679;DHT22;29279;50.858;4.392;2023-07-09T13:06:53;24.80;99.90
43679;DHT22;29279;50.858;4.392;2023-07-09T13:09:23;24.90;99.90
43679;DHT22;29279;50.858;4.392;2023-07-09T13:11:48;24.90;99.90
43679;DHT22;29279;50.858;4.392;2023-07-09T13:14:30;24.90;99.90
43679;DHT22;29279;50.858;4.392;2023-07-09T13:17:05;25.10;99.90
43679;DHT22;29279;50.858;4.392;2023-07-09T13:19:32;25.20;99.90
43679;DHT22;29279;50.858;4.392;2023-07-09T13:21:58;25.30;99.90
43679;DHT22;29279;50.858;4.392;2023-07-09T13:24:27;25.50;99.90
43679;DHT22;29279;50.858;4.392;2023-07-09T13:26:53;25.60;99.90
43679;DHT22;29279;50.858;4.392;2023-07-09T13:29:20;25.70;99.90
43679;DHT22;29279;50.858;4.392;2023-07-09T13:31:46;25.80;99.90
43679;DHT22;29279;50.858;4.392;2023-07-09T13:34:26;25.80;99.90
43679;DHT22;29279;50.858;4.392;2023-07-09T13:36:54;25.90;99.90
43679;DHT22;29279;50.858;4.392;2023-07-09T13:39:22;25.80;99.90
43679;DHT22;29279;50.858;4.392;2023-07-09T13:41:50;25.70;99.90
43679;DHT22;29279;50.858;4.392;2023-07-09T13:44:22;25.70;99.90
43679;DHT22;29279;50.858;4.392;2023-07-09T13:46:48;25.80;99.90
43679;DHT22;29279;50.858;4.392;2023-07-09T13:49:16;25.90;99.90
43679;DHT22;29279;50.858;4.392;2023-07-09T13:51:44;26.00;99.90
43679;DHT22;29279;50.858;4.392;2023-07-09T13:54:17;26.20;99.90
43679;DHT22;29279;50.858;4.392;2023-07-09T13:56:43;26.30;99.90
43679;DHT22;29279;50.858;4.392;2023-07-09T13:59:21;26.40;99.90
43679;DHT22;29279;50.858;4.392;2023-07-09T14:01:48;26.40;99.90
43679;DHT22;29279;50.858;4.392;2023-07-09T14:04:16;26.70;99.90
43679;DHT22;29279;50.858;4.392;2023-07-09T14:06:43;26.80;99.90
43679;DHT22;29279;50.858;4.392;2023-07-09T14:09:12;27.10;99.90
43679;DHT22;29279;50.858;4.392;2023-07-09T14:11:44;27.90;99.90
43679;DHT22;29279;50.858;4.392;2023-07-09T14:14:32;29.20;99.90
43679;DHT22;29279;50.858;4.392;2023-07-09T14:16:58;30.30;99.90
43679;DHT22;29279;50.858;4.392;2023-07-09T14:19:25;30.90;99.90
43679;DHT22;29279;50.858;4.392;2023-07-09T14:21:51;30.90;99.90
43679;DHT22;29279;50.858;4.392;2023-07-09T14:26:43;31.00;99.90
43679;DHT22;29279;50.858;4.392;2023-07-09T14:29:12;30.60;99.90
43679;DHT22;29279;50.858;4.392;2023-07-09T14:31:39;30.50;99.90
43679;DHT22;29279;50.858;4.392;2023-07-09T14:34:28;31.00;99.90
43679;DHT22;29279;50.858;4.392;2023-07-09T14:36:57;31.30;99.90
43679;DHT22;29279;50.858;4.392;2023-07-09T14:39:23;31.70;99.90
43679;DHT22;29279;50.858;4.392;2023-07-09T14:41:49;31.30;99.90
43679;DHT22;29279;50.858;4.392;2023-07-09T14:46:50;30.60;99.90
43679;DHT22;29279;50.858;4.392;2023-07-09T14:49:17;30.40;99.90
43679;DHT22;29279;50.858;4.392;2023-07-09T14:51:43;30.50;99.90
43679;DHT22;29279;50.858;4.392;2023-07-09T14:54:29;30.50;99.90
43679;DHT22;29279;50.858;4.392;2023-07-09T14:56:57;30.20;99.90
43679;DHT22;29279;50.858;4.392;2023-07-09T14:59:24;30.30;99.90
43679;DHT22;29279;50.858;4.392;2023-07-09T15:01:50;30.60;99.90
43679;DHT22;29279;50.858;4.392;2023-07-09T15:06:52;30.70;99.90
43679;DHT22;29279;50.858;4.392;2023-07-09T15:09:24;30.90;99.90
43679;DHT22;29279;50.858;4.392;2023-07-09T15:11:55;31.00;99.90
43679;DHT22;29279;50.858;4.392;2023-07-09T15:14:21;31.10;99.90
43679;DHT22;29279;50.858;4.392;2023-07-09T15:16:48;31.10;99.90
43679;DHT22;29279;50.858;4.392;2023-07-09T15:19:17;31.20;99.90
43679;DHT22;29279;50.858;4.392;2023-07-09T15:21:43;31.40;99.90
43679;DHT22;29279;50.858;4.392;2023-07-09T15:24:19;31.50;99.90
43679;DHT22;29279;50.858;4.392;2023-07-09T15:26:49;31.40;99.90
43679;DHT22;29279;50.858;4.392;2023-07-09T15:29:18;31.30;99.90
43679;DHT22;29279;50.858;4.392;2023-07-09T15:31:44;31.30;99.90
43679;DHT22;29279;50.858;4.392;2023-07-09T15:34:10;31.30;99.90
43679;DHT22;29279;50.858;4.392;2023-07-09T15:36:35;31.40;99.90
43679;DHT22;29279;50.858;4.392;2023-07-09T15:39:02;31.50;99.90
43679;DHT22;29279;50.858;4.392;2023-07-09T15:41:28;31.60;99.90
43679;DHT22;29279;50.858;4.392;2023-07-09T15:43:53;31.60;99.40
43679;DHT22;29279;50.858;4.392;2023-07-09T15:46:21;31.50;99.90
43679;DHT22;29279;50.858;4.392;2023-07-09T15:48:49;31.60;99.90
43679;DHT22;29279;50.858;4.392;2023-07-09T15:51:15;31.50;99.90
43679;DHT22;29279;50.858;4.392;2023-07-09T15:53:41;31.50;99.90
43679;DHT22;29279;50.858;4.392;2023-07-09T15:58:49;31.30;99.90
43679;DHT22;29279;50.858;4.392;2023-07-09T16:01:16;31.30;99.90
43679;DHT22;29279;50.858;4.392;2023-07-09T16:03:46;31.20;99.90
43679;DHT22;29279;50.858;4.392;2023-07-09T16:06:13;30.90;99.90
43679;DHT22;29279;50.858;4.392;2023-07-09T16:08:39;30.70;99.90
43679;DHT22;29279;50.858;4.392;2023-07-09T16:11:16;30.70;99.90
43679;DHT22;29279;50.858;4.392;2023-07-09T16:13:42;30.50;99.90
43679;DHT22;29279;50.858;4.392;2023-07-09T16:16:16;30.40;99.90
43679;DHT22;29279;50.858;4.392;2023-07-09T16:18:42;30.20;99.90
43679;DHT22;29279;50.858;4.392;2023-07-09T16:21:23;30.20;99.90
43679;DHT22;29279;50.858;4.392;2023-07-09T16:23:50;30.20;99.90
43679;DHT22;29279;50.858;4.392;2023-07-09T16:26:15;30.00;99.90
43679;DHT22;29279;50.858;4.392;2023-07-09T16:28:41;29.80;99.90